Tiempo atmosférico en la estación meteorológica de Campos, Salines Llevant, Illes Balears (3 m.)

Fecha
DESCASC
Temp. máxima en grados centígrados (hora)
DESCASC
Temp. mínima en grados centígrados (hora)
DESCASC
Temp. media en grados centígrados
DESCASC
Racha de viento máxima en m/sg (hora)
DESCASC
Velocidad máxima media en intervalos de 10 minutos(hora)
DESCASC
Precipitaciones diarias en mm
DESCASC
Precipitaciones de 00:00 a 06:00 en mm
DESCASC
Precipitaciones de 06:00 a 12:00 en mm
DESCASC
Precipitaciones de 12:00 a 18:00 en mm
DESCASC
Precipitaciones de 18:00 a 24:00 en mm
DESCASC
10-12-2017 18.8 (12:10) 6.3 (00:00) 12.5 14.44 (19:40) 9.72 (13:00) 0 0 0 0 0
09-12-2017 14.2 (11:10) 4.2 (22:10) 9.2 8.61 (11:30) 5.83 (11:30) 0 0 0 0 0
08-12-2017 17.3 (12:20) 5 (04:30) 11.1 12.78 (11:40) 7.22 (12:40) 0 0 0 0 0
07-12-2017 17.6 (15:10) 1.8 (00:00) 9.7 6.39 (15:40) 3.61 (15:00) 0 0 0 0 0
06-12-2017 17 (15:10) -0.4 (00:00) 8.3 5.56 (13:40) 2.78 (12:40) 0 0 0 0 0
05-12-2017 16.3 (13:50) -1.6 (-00:0) 7.3 5.56 (14:50) 3.33 (14:50) 0 0 0 0 0
04-12-2017 15.8 (14:40) -1.7 (-00:0) 7.1 4.72 (15:30) 2.78 (15:00) 0 0 0 0 0
03-12-2017 12.4 (14:40) 0.6 (00:00) 6.5 9.44 (11:50) 6.39 (11:50) 0 0 0 0 0
02-12-2017 11.2 (14:40) 0.1 (00:00) 5.6 21.39 (01:40) 12.22 (01:40) 1 1 0 0 0
01-12-2017 14.4 (14:10) 0 (00:00) 7.2 16.67 (09:30) 10.56 (18:40) 7.6 0 1.8 4.2 1.6
30-11-2017 12.8 (12:40) 1.6 (00:00) 7.2 10 (14:30) 6.94 (14:10) 0.2 0.2 0 0 0
29-11-2017 16.2 (04:00) 10.1 (00:00) 13.2 8.89 (04:00) 6.11 (04:00) 14.4 3 7.6 3.6 0.2
28-11-2017 18.7 (14:40) 4.5 (00:00) 11.6 12.22 (14:30) 7.22 (14:30) 0.2 0 0 0.2 0
27-11-2017 17.2 (13:50) 0.4 (00:00) 8.8 5 (14:50) 2.78 (14:00) 0 0 0 0 0
26-11-2017 14.5 (01:40) 2.9 (00:00) 8.7 8.33 (04:10) 5.56 (04:00) 0 0 0 0 0
25-11-2017 21.7 (15:00) 9.8 (00:00) 15.8 8.61 (13:00) 5.83 (12:20) 0 0 0 0 0
24-11-2017 21.7 (12:40) 7 (00:00) 14.4 7.78 (11:40) 5.28 (11:40) 0 0 0 0 0
23-11-2017 20.4 (14:10) 3.9 (00:00) 12.1 6.39 (15:20) 4.17 (15:20) 0 0 0 0 0
22-11-2017 20.3 (14:30) 6.4 (00:00) 13.3 6.11 (13:40) 3.89 (11:30) 0 0 0 0 0
21-11-2017 20.3 (14:10) 5.9 (00:00) 13.1 5.56 (13:20) 3.61 (14:30) 0 0 0 0 0
20-11-2017 19.7 (14:40) 2.9 (00:00) 11.3 6.39 (12:40) 4.17 (12:50) 0 0 0 0 0
19-11-2017 20 (15:40) 3.5 (00:00) 11.8 8.06 (14:20) 5.83 (14:20) 0 0 0 0 0
18-11-2017 20.3 (15:50) 2.7 (00:00) 11.5 6.67 (16:40) 3.89 (16:40) 0 0 0 0 0
17-11-2017 18.9 (14:30) 2.2 (00:00) 10.5 8.89 (13:40) 5.56 (13:40) 0 0 0 0 0
16-11-2017 20 (13:50) 1.4 (00:00) 10.7 9.17 (14:40) 4.44 (15:10) 0 0 0 0 0
15-11-2017 18.1 (15:30) 1.9 (00:00) 10 9.72 (14:10) 6.39 (14:00) 0 0 0 0 0

Gráficas

Temp. máximas Temp. mínimas Temp. medias Precipitaciones Rachas de viento máximas Velocidades máximas media en intervalos de 10 minutos

Datos horarios

Fecha y hora oficial Temperatura (ºC) Velocidad del viento (km/h) Dirección del viento Racha (km/h) Dirección de racha Precipitación (mm) Presión (hPa) Tendencia (hPa) Humedad (%)
2017-12-14 23:00:00 15.8 22 Oeste 39 Oeste 0 -- -- 77
2017-12-14 22:00:00 15.8 21 Oeste 35 Sudoeste 0 -- -- 80
2017-12-14 21:00:00 15.8 24 Oeste 37 Oeste 0 -- -- 81
2017-12-14 20:00:00 15.7 17 Sudoeste 33 Sudoeste 0 -- -- 80
2017-12-14 19:00:00 15.6 18 Sudoeste 33 Oeste 0 -- -- 79
2017-12-14 18:00:00 15.6 22 Oeste 41 Oeste 0 -- -- 76
2017-12-14 17:00:00 16 23 Oeste 37 Oeste 0 -- -- 74
2017-12-14 16:00:00 16.7 25 Oeste 42 Oeste 0 -- -- 73
2017-12-14 15:00:00 16.2 33 Oeste 56 Oeste 0 -- -- 73
2017-12-14 14:00:00 16.2 23 Oeste 43 Oeste 0 -- -- 74
2017-12-14 13:00:00 16.3 27 Oeste 41 Oeste 0 -- -- 73
2017-12-14 12:00:00 16.8 27 Oeste 39 Oeste 0 -- -- 72
2017-12-14 11:00:00 16.3 27 Oeste 44 Oeste 0 -- -- 70
2017-12-14 10:00:00 15.9 25 Oeste 36 Oeste 0 -- -- 67
2017-12-14 09:00:00 15.2 28 Oeste 48 Oeste 0 -- -- 70
2017-12-14 08:00:00 14.8 23 Oeste 38 Oeste 0 -- -- 66
2017-12-14 07:00:00 14.7 28 Oeste 39 Oeste 0 -- -- 63
2017-12-14 06:00:00 14.6 23 Oeste 40 Oeste 0 -- -- 63
2017-12-14 05:00:00 14.6 25 Oeste 41 Oeste 0 -- -- 64
2017-12-14 04:00:00 14.7 28 Oeste 44 Oeste 0 -- -- 63
2017-12-14 03:00:00 14.9 28 Oeste 41 Oeste 0 -- -- 62
2017-12-14 02:00:00 15 28 Oeste 41 Oeste 0 -- -- 60
2017-12-14 01:00:00 14.9 26 Oeste 46 Oeste 0 -- -- 63
2017-12-14 00:00:00 14.9 26 Oeste 47 Sudoeste 0 -- -- 68
2017-12-13 23:00:00 14.6 25 Oeste 40 Sudoeste 0 -- -- 68
2017-12-13 22:00:00 14.4 22 Sudoeste 42 Oeste 0 -- -- 64
2017-12-13 21:00:00 14.4 23 Oeste 53 Oeste 0 -- -- 61
2017-12-13 20:00:00 14.3 26 Oeste 42 Sudoeste 0 -- -- 60
2017-12-13 19:00:00 14.2 24 Oeste 41 Oeste 0 -- -- 59
2017-12-13 18:00:00 13.8 19 Sudoeste 42 Sudoeste 0 -- -- 60
2017-12-13 17:00:00 13.9 19 Sudoeste 35 Oeste 0 -- -- 59
2017-12-13 16:00:00 14.3 22 Sudoeste 37 Sudoeste 0 -- -- 58
2017-12-13 15:00:00 15.5 24 Oeste 36 Oeste 0 -- -- 55
2017-12-13 14:00:00 15.1 22 Oeste 40 Sudoeste 0 -- -- 54
2017-12-13 13:00:00 14.8 20 Oeste 31 Oeste 0 -- -- 52
2017-12-13 12:00:00 14.1 11 Oeste 22 Oeste 0 -- -- 69
2017-12-13 11:00:00 9.9 0 Calma 3 Norte 0 -- -- 92
2017-12-13 10:00:00 5.7 0 Calma 3 Norte 0 -- -- 96
2017-12-13 09:00:00 2.9 0 Calma 4 Norte 0 -- -- 97
2017-12-13 08:00:00 1 0 Calma 3 Norte 0 -- -- 96
2017-12-13 07:00:00 1.1 0 Calma 4 Norte 0 -- -- 96
2017-12-13 06:00:00 1.8 0 Calma 4 Norte 0 -- -- 95
2017-12-13 05:00:00 3.8 4 Oeste 5 Oeste 0 -- -- 96
2017-12-13 04:00:00 2.7 0 Calma 2 Noroeste 0 -- -- 95
2017-12-13 03:00:00 3.4 2 Sudeste 4 Noroeste 0 -- -- 93
2017-12-13 02:00:00 5.3 3 Noroeste 6 Norte 0 -- -- 94
2017-12-13 01:00:00 6.1 5 Norte 9 Nordeste 0 -- -- 93
2017-12-13 00:00:00 4.6 2 Norte 5 Oeste 0 -- -- 91
2017-12-12 23:00:00 6.3 0 Calma 11 Norte 0 -- -- 87
2017-12-12 22:00:00 5.9 3 Nordeste 10 Nordeste 0 -- -- 86
2017-12-12 21:00:00 8.3 5 Norte 8 Norte 0 -- -- 84
2017-12-12 20:00:00 9.4 0 Calma 6 Noroeste 0 -- -- 82
2017-12-12 19:00:00 11 4 Nordeste 14 Norte 0 -- -- 77
2017-12-12 18:00:00 12.6 14 Noroeste 22 Noroeste 0 -- -- 72
2017-12-12 17:00:00 13.3 8 Noroeste 15 Noroeste 0 -- -- 71
2017-12-12 16:00:00 14.1 10 Noroeste 18 Noroeste 0 -- -- 70
2017-12-12 15:00:00 14.3 8 Nordeste 17 Nordeste 0 -- -- 75
2017-12-12 14:00:00 14 13 Nordeste 17 Norte 0 -- -- 76
2017-12-12 13:00:00 13.4 13 Norte 22 Norte 0 -- -- 79
2017-12-12 12:00:00 12.7 11 Nordeste 15 Norte 0 -- -- 84
2017-12-12 11:00:00 10.9 5 Norte 8 Noroeste 0 -- -- 91
2017-12-12 10:00:00 9.8 0 Calma 6 Sudeste 0 -- -- 92
2017-12-12 09:00:00 9.1 4 Sur 6 Norte 0 -- -- 92
2017-12-12 08:00:00 9.2 0 Calma 5 Norte 0 -- -- 90
2017-12-12 07:00:00 9.5 2 Norte 8 Norte 0 -- -- 88
2017-12-12 06:00:00 11.8 0 Calma 9 Noroeste 0 -- -- 81
2017-12-12 05:00:00 12.1 2 Norte 20 Oeste 0 -- -- 78
2017-12-12 04:00:00 14 13 Oeste 19 Oeste 0 -- -- 73
2017-12-12 03:00:00 12.9 6 Noroeste 21 Oeste 0 -- -- 75
2017-12-12 02:00:00 13.6 12 Oeste 29 Oeste 0 -- -- 73
2017-12-12 01:00:00 14.5 18 Oeste 36 Oeste 0 -- -- 69
2017-12-12 00:00:00 14.6 24 Oeste 38 Oeste 0 -- -- 68
2017-12-11 23:00:00 14.5 27 Oeste 40 Oeste 0 -- -- 68
2017-12-11 22:00:00 14.5 30 Oeste 51 Oeste 0 -- -- 67
2017-12-11 21:00:00 14.5 33 Oeste 49 Oeste 0 -- -- 66
2017-12-11 20:00:00 14.6 34 Oeste 53 Oeste 0 -- -- 66
2017-12-11 19:00:00 14.6 34 Oeste 53 Oeste 0 -- -- 67
2017-12-11 18:00:00 14.6 30 Oeste 54 Oeste 0 -- -- 72
2017-12-11 17:00:00 14.5 32 Oeste 50 Sudoeste 0 -- -- 80
2017-12-11 16:00:00 14.5 35 Oeste 59 Oeste 0 -- -- 80
2017-12-11 15:00:00 14 34 Oeste 53 Oeste 1.8 -- -- 84
2017-12-11 14:00:00 16 35 Oeste 64 Sudoeste 0.4 -- -- 79
2017-12-11 13:00:00 18.5 41 Sudoeste 69 Sudoeste 0 -- -- 71
2017-12-11 12:00:00 18.4 41 Sudoeste 75 Sudoeste 0 -- -- 70
2017-12-11 11:00:00 18.2 37 Sudoeste 66 Sudoeste 0 -- -- 75
2017-12-11 10:00:00 17.9 39 Sudoeste 69 Sudoeste 0 -- -- 79
2017-12-11 09:00:00 17.7 37 Sudoeste 74 Sudoeste 0 -- -- 81
2017-12-11 08:00:00 17.5 32 Sudoeste 66 Sudoeste 0 -- -- 82
2017-12-11 07:00:00 17.1 30 Sudoeste 56 Sudoeste 0 -- -- 84
2017-12-11 06:00:00 16.9 34 Sudoeste 55 Sudoeste 0 -- -- 81
2017-12-11 05:00:00 16.8 31 Sudoeste 57 Sudoeste 0 -- -- 82
2017-12-11 04:00:00 16.8 29 Sudoeste 54 Sudoeste 0 -- -- 82
2017-12-11 03:00:00 16.8 28 Sudoeste 53 Sudoeste 0 -- -- 83
2017-12-11 02:00:00 16.9 30 Sudoeste 52 Sudoeste 0 -- -- 84
2017-12-11 01:00:00 16.8 30 Sudoeste 52 Sudoeste 0 -- -- 86
2017-12-11 00:00:00 16.6 30 Sudoeste 49 Sudoeste 0 -- -- 86
2017-12-10 23:00:00 16.9 25 Sudoeste 45 Sudoeste 0 -- -- 85
2017-12-10 22:00:00 16.9 21 Sudoeste 49 Sudoeste 0 -- -- 84
2017-12-10 21:00:00 16.8 23 Sudoeste 46 Sudoeste 0 -- -- 83
2017-12-10 20:00:00 16.9 22 Sudoeste 52 Sur 0 -- -- 84
2017-12-10 19:00:00 17.2 20 Sudoeste 46 Sudoeste 0 -- -- 78
2017-12-10 18:00:00 17.2 23 Sudoeste 43 Sudoeste 0 -- -- 76
2017-12-10 17:00:00 17.5 19 Sudoeste 43 Sudoeste 0 -- -- 78
2017-12-10 16:00:00 17.7 26 Sudoeste 47 Oeste 0 -- -- 71
2017-12-10 15:00:00 18.2 30 Oeste 45 Oeste 0 -- -- 73
2017-12-10 14:00:00 18.4 35 Oeste 50 Oeste 0 -- -- 66
2017-12-10 13:00:00 18.3 35 Oeste 49 Oeste 0 -- -- 69
2017-12-10 12:00:00 18.3 27 Oeste 44 Oeste 0 -- -- 72
2017-12-10 11:00:00 17.5 26 Oeste 41 Oeste 0 -- -- 75
2017-12-10 10:00:00 17.4 25 Oeste 49 Oeste 0 -- -- 75
2017-12-10 09:00:00 17 22 Oeste 36 Oeste 0 -- -- 80
2017-12-10 08:00:00 16.4 17 Sudoeste 33 Sudoeste 0 -- -- 85
2017-12-10 07:00:00 16.2 18 Sudoeste 34 Sudoeste 0 -- -- 87
2017-12-10 06:00:00 15.9 15 Sudoeste 32 Sudoeste 0 -- -- 88
2017-12-10 05:00:00 15.4 15 Sudoeste 32 Sudoeste 0 -- -- 83
2017-12-10 04:00:00 14.8 13 Sudoeste 30 Sudoeste 0 -- -- 79
2017-12-10 03:00:00 13.5 12 Sudoeste 27 Sudoeste 0 -- -- 79
2017-12-10 02:00:00 7.6 0 Calma 6 Norte 0 -- -- 93
2017-12-10 01:00:00 6.9 3 Norte 6 Norte 0 -- -- 94
2017-12-10 00:00:00 6.3 0 Calma 6 Norte 0 -- -- 94
2017-12-09 23:00:00 5.3 3 Norte 5 Noroeste 0 -- -- 94
2017-12-09 22:00:00 4.4 2 Nordeste 4 Sudeste 0 -- -- 91
2017-12-09 21:00:00 5.4 3 Sudeste 5 Este 0 -- -- 90
2017-12-09 20:00:00 6.6 0 Calma 3 Norte 0 -- -- 86
2017-12-09 19:00:00 8.4 0 Calma 5 Norte 0 -- -- 84
2017-12-09 18:00:00 10.2 3 Norte 12 Este 0 -- -- 77
2017-12-09 17:00:00 11.1 7 Este 22 Nordeste 0 -- -- 74
2017-12-09 16:00:00 11.4 13 Este 25 Este 0 -- -- 72
2017-12-09 15:00:00 12.5 14 Este 24 Este 0 -- -- 67
2017-12-09 14:00:00 12.3 12 Este 24 Este 0 -- -- 69
2017-12-09 13:00:00 12 14 Nordeste 29 Nordeste 0 -- -- 74
2017-12-09 12:00:00 12.8 13 Este 31 Este 0 -- -- 74
2017-12-09 11:00:00 13.8 11 Nordeste 21 Este 0 -- -- 73
2017-12-09 10:00:00 12.6 9 Norte 17 Noroeste 0 -- -- 64
2017-12-09 09:00:00 10.3 7 Este 22 Noroeste 0 -- -- 74
2017-12-09 08:00:00 9.2 8 Norte 15 Noroeste 0 -- -- 76
2017-12-09 07:00:00 4.9 4 Este 9 Oeste 0 -- -- 94
2017-12-09 06:00:00 6 0 Calma 9 Norte 0 -- -- 95
2017-12-09 05:00:00 5.3 4 Sudeste 12 Norte 0 -- -- 95
2017-12-09 04:00:00 6.5 5 Nordeste 12 Norte 0 -- -- 94
2017-12-09 03:00:00 6.9 4 Nordeste 13 Norte 0 -- -- 92
2017-12-09 02:00:00 6.8 0 Calma 6 Noroeste 0 -- -- 89
2017-12-09 01:00:00 8.8 3 Norte 9 Nordeste 0 -- -- 86
2017-12-09 00:00:00 11.2 4 Nordeste 18 Oeste 0 -- -- 78
2017-12-08 23:00:00 11.1 10 Oeste 12 Oeste 0 -- -- 87
2017-12-08 22:00:00 9.4 3 Sudeste 9 Norte 0 -- -- 85
2017-12-08 21:00:00 11.2 3 Norte 6 Norte 0 -- -- 83
2017-12-08 20:00:00 13 0 Calma 8 Noroeste 0 -- -- 76
2017-12-08 19:00:00 14.3 6 Noroeste 15 Oeste 0 -- -- 72
2017-12-08 18:00:00 15.1 10 Oeste 25 Oeste 0 -- -- 68
2017-12-08 17:00:00 15.7 17 Oeste 28 Oeste 0 -- -- 66
2017-12-08 16:00:00 16.1 15 Oeste 30 Oeste 0 -- -- 65
2017-12-08 15:00:00 16.7 20 Oeste 34 Oeste 0 -- -- 65
2017-12-08 14:00:00 16.8 25 Oeste 34 Oeste 0 -- -- 63
2017-12-08 13:00:00 16.7 23 Oeste 44 Oeste 0 -- -- 68
2017-12-08 12:00:00 16.8 26 Oeste 46 Oeste 0 -- -- 71
2017-12-08 11:00:00 16.3 22 Oeste 33 Oeste 0 -- -- 70
2017-12-08 10:00:00 16.1 16 Sudoeste 32 Oeste 0 -- -- 73
2017-12-08 09:00:00 15.3 12 Sudoeste 30 Sudoeste 0 -- -- 73
2017-12-08 08:00:00 14.7 17 Sudoeste 31 Oeste 0 -- -- 73
2017-12-08 07:00:00 14.1 18 Oeste 28 Sudoeste 0 -- -- 75
2017-12-08 06:00:00 8.8 3 Noroeste 9 Norte 0 -- -- 93
2017-12-08 05:00:00 5.5 0 Calma 4 Norte 0 -- -- 94
2017-12-08 04:00:00 5.3 2 Este 6 Nordeste 0 -- -- 92
2017-12-08 03:00:00 6.8 0 Calma 4 Noroeste 0 -- -- 92
2017-12-08 02:00:00 6.9 3 Sur 9 Sudeste 0 -- -- 90
2017-12-08 01:00:00 8.4 0 Calma 7 Norte 0 -- -- 90
2017-12-08 00:00:00 8.7 0 Calma 5 Sur 0 -- -- 85
2017-12-07 23:00:00 10.2 0 Calma 7 Norte 0 -- -- 84
2017-12-07 22:00:00 10.1 4 Nordeste 10 Sur 0 -- -- 83
2017-12-07 21:00:00 9 7 Sur 12 Sur 0 -- -- 82
2017-12-07 20:00:00 9.5 6 Sur 9 Sur 0 -- -- 80
2017-12-07 19:00:00 10.2 7 Sur 10 Sur 0 -- -- 77
2017-12-07 18:00:00 11.4 6 Sur 11 Sur 0 -- -- 74
2017-12-07 17:00:00 15.7 8 Sur 17 Sur 0 -- -- 60
2017-12-07 16:00:00 17.4 11 Sudoeste 23 Sur 0 -- -- 54
2017-12-07 15:00:00 17.5 13 Sudoeste 20 Sudoeste 0 -- -- 55
2017-12-07 14:00:00 16.7 7 Sudoeste 15 Sudoeste 0 -- -- 60
2017-12-07 13:00:00 16.9 8 Oeste 13 Oeste 0 -- -- 65
2017-12-07 12:00:00 14.2 4 Oeste 10 Oeste 0 -- -- 87
2017-12-07 11:00:00 10.5 0 Calma -- -- 0 -- -- 95
2017-12-07 10:00:00 8.8 0 Calma 0 Calma 0 -- -- 96
2017-12-07 09:00:00 5.1 0 Calma -- -- 0 -- -- 98
2017-12-07 08:00:00 3.7 0 Calma 3 Sudeste 0 -- -- 96
2017-12-07 07:00:00 4.7 2 Oeste 4 Norte 0 -- -- 98
2017-12-07 06:00:00 4.2 0 Calma 4 Noroeste 0 -- -- 97
2017-12-07 05:00:00 4.4 2 Norte 7 Norte 0 -- -- 96
2017-12-07 04:00:00 4.9 0 Calma 8 Nordeste 0 -- -- 97
2017-12-07 03:00:00 2.5 0 Calma 5 Norte 0 -- -- 96
2017-12-07 02:00:00 1.9 0 Calma 2 Sur 0 -- -- 95
2017-12-07 01:00:00 2.5 0 Calma 0 Calma 0 -- -- 95
2017-12-07 00:00:00 2.7 0 Calma 2 Norte 0 -- -- 94
2017-12-06 23:00:00 2.8 0 Calma 2 Norte 0 -- -- 94
2017-12-06 22:00:00 3.3 0 Calma 3 Sudeste 0 -- -- 92
2017-12-06 21:00:00 4.1 0 Calma 3 Sur 0 -- -- 90
2017-12-06 20:00:00 6 0 Calma 7 Sudeste 0 -- -- 88
2017-12-06 19:00:00 6.9 5 Sudeste 9 Sudeste 0 -- -- 86
2017-12-06 18:00:00 8.9 5 Sudeste 6 Sudeste 0 -- -- 77
2017-12-06 17:00:00 14.5 3 Sudeste 9 Sur 0 -- -- 66
2017-12-06 16:00:00 15.2 7 Sur 15 Sur 0 -- -- 61
2017-12-06 15:00:00 16.6 5 Oeste 17 Sudeste 0 -- -- 57
2017-12-06 14:00:00 16.1 9 Sur 20 Sur 0 -- -- 58
2017-12-06 13:00:00 16.6 8 Sur 18 Sur 0 -- -- 57
2017-12-06 12:00:00 15.6 8 Sudeste 17 Sudeste 0 -- -- 66
2017-12-06 11:00:00 10.7 0 Calma -- -- 0 -- -- 94
2017-12-06 10:00:00 5.8 0 Calma -- -- 0 -- -- 97
2017-12-06 09:00:00 2.6 0 Calma -- -- 0 -- -- 99
2017-12-06 08:00:00 0.2 0 Calma -- -- 0 -- -- 97
2017-12-06 07:00:00 -0.4 0 Calma -- -- 0 -- -- 97
2017-12-06 06:00:00 -0.3 0 Calma -- -- 0 -- -- 96
2017-12-06 05:00:00 -0.1 0 Calma -- -- 0 -- -- 96
2017-12-06 04:00:00 0.1 0 Calma -- -- 0 -- -- 96
2017-12-06 03:00:00 0.5 0 Calma -- -- 0 -- -- 95
2017-12-06 02:00:00 0.7 0 Calma -- -- 0 -- -- 95
2017-12-06 01:00:00 0.8 0 Calma -- -- 0 -- -- 94
2017-12-06 00:00:00 1.3 0 Calma -- -- 0 -- -- 94
2017-12-05 23:00:00 1.7 0 Calma 0 Calma 0 -- -- 93
2017-12-05 22:00:00 2.5 0 Calma -- -- 0 -- -- 92
2017-12-05 21:00:00 3.6 0 Calma -- -- 0 -- -- 90
2017-12-05 20:00:00 4.7 0 Calma 4 Sudeste 0 -- -- 87
2017-12-05 19:00:00 6.3 4 Sudeste 5 Sudeste 0 -- -- 83
2017-12-05 18:00:00 9.5 3 Sudeste 9 Oeste 0 -- -- 75
2017-12-05 17:00:00 14.6 7 Oeste 15 Oeste 0 -- -- 62
2017-12-05 16:00:00 15.9 8 Oeste 18 Oeste 0 -- -- 57
2017-12-05 15:00:00 16 10 Oeste 20 Oeste 0 -- -- 59
2017-12-05 14:00:00 16.3 6 Sudoeste 14 Oeste 0 -- -- 57
2017-12-05 13:00:00 16.1 7 Oeste 16 Sudoeste 0 -- -- 57
2017-12-05 12:00:00 14.8 0 Calma 3 Oeste 0 -- -- 62
2017-12-05 11:00:00 9.6 0 Calma 2 Nordeste 0 -- -- 88
2017-12-05 10:00:00 5.1 0 Calma 3 Norte 0 -- -- 96
2017-12-05 09:00:00 1.7 0 Calma 2 Nordeste 0 -- -- 98
2017-12-05 08:00:00 -1.6 0 Calma 2 Sudeste 0 -- -- 96
2017-12-05 07:00:00 -1.2 0 Calma 2 Norte 0 -- -- 96
2017-12-05 06:00:00 -1.4 0 Calma 2 Sudeste 0 -- -- 96
2017-12-05 05:00:00 -1.1 0 Calma 4 Nordeste 0 -- -- 95
2017-12-05 04:00:00 -1 0 Calma 4 Este 0 -- -- 95
2017-12-05 03:00:00 -0.8 0 Calma 3 Este 0 -- -- 95
2017-12-05 02:00:00 -0.5 0 Calma 2 Este 0 -- -- 94
2017-12-05 01:00:00 0.2 0 Calma 3 Norte 0 -- -- 94
2017-12-05 00:00:00 0.2 0 Calma 3 Sudeste 0 -- -- 93
2017-12-04 23:00:00 0.6 0 Calma 2 Este 0 -- -- 91
2017-12-04 22:00:00 1.6 0 Calma 3 Norte 0 -- -- 90
2017-12-04 21:00:00 2.2 3 Sudeste 4 Sudeste 0 -- -- 87
2017-12-04 20:00:00 3.4 3 Sudeste 4 Sudeste 0 -- -- 83
2017-12-04 19:00:00 5 0 Calma 5 Sudeste 0 -- -- 77
2017-12-04 18:00:00 8 3 Sudeste 6 Oeste 0 -- -- 70
2017-12-04 17:00:00 14.2 5 Oeste 12 Oeste 0 -- -- 52
2017-12-04 16:00:00 15.5 8 Oeste 17 Oeste 0 -- -- 42
2017-12-04 15:00:00 15.6 10 Sudoeste 16 Oeste 0 -- -- 39
2017-12-04 14:00:00 15.6 8 Oeste 15 Oeste 0 -- -- 45
2017-12-04 13:00:00 15.6 0 Calma 9 Oeste 0 -- -- 44
2017-12-04 12:00:00 13.7 3 Noroeste 7 Norte 0 -- -- 53
2017-12-04 11:00:00 9.1 0 Calma 3 Oeste 0 -- -- 82
2017-12-04 10:00:00 4.9 0 Calma 3 Norte 0 -- -- 95
2017-12-04 09:00:00 1.1 0 Calma 3 Norte 0 -- -- 97
2017-12-04 08:00:00 -1.7 0 Calma 2 Sudeste 0 -- -- 96
2017-12-04 07:00:00 -1.5 0 Calma 3 Sudeste 0 -- -- 95
2017-12-04 06:00:00 -1.3 0 Calma 3 Norte 0 -- -- 95
2017-12-04 05:00:00 -0.7 0 Calma 3 Noroeste 0 -- -- 96
2017-12-04 04:00:00 -0.6 0 Calma 5 Norte 0 -- -- 94
2017-12-04 03:00:00 -0.3 0 Calma 4 Sudeste 0 -- -- 94
2017-12-04 02:00:00 -0.2 0 Calma 5 Nordeste 0 -- -- 93
2017-12-04 01:00:00 0.4 2 Este 5 Norte 0 -- -- 93
2017-12-04 00:00:00 0.6 0 Calma 6 Norte 0 -- -- 92
2017-12-03 23:00:00 1 2 Sudeste 5 Sudeste 0 -- -- 91
2017-12-03 22:00:00 1.1 4 Sudeste 5 Sudeste 0 -- -- 89
2017-12-03 21:00:00 2.3 0 Calma 7 Nordeste 0 -- -- 86
2017-12-03 20:00:00 2.8 0 Calma 3 Nordeste 0 -- -- 83
2017-12-03 19:00:00 4.4 2 Sudoeste 6 Oeste 0 -- -- 78
2017-12-03 18:00:00 7.3 2 Sur 10 Oeste 0 -- -- 70
2017-12-03 17:00:00 11.8 4 Noroeste 18 Norte 0 -- -- 55
2017-12-03 16:00:00 12.3 14 Norte 30 Norte 0 -- -- 49
2017-12-03 15:00:00 12.3 20 Norte 31 Norte 0 -- -- 48
2017-12-03 14:00:00 12.1 19 Norte 32 Norte 0 -- -- 56
2017-12-03 13:00:00 11.9 21 Norte 34 Norte 0 -- -- 58
2017-12-03 12:00:00 11.5 23 Norte 34 Norte 0 -- -- 65
2017-12-03 11:00:00 10.2 14 Norte 19 Norte 0 -- -- 76
2017-12-03 10:00:00 7.3 4 Nordeste 6 Nordeste 0 -- -- 90
2017-12-03 09:00:00 4.7 2 Este 5 Nordeste 0 -- -- 92
2017-12-03 08:00:00 4.5 4 Norte 17 Norte 0 -- -- 90
2017-12-03 07:00:00 4.3 8 Norte 14 Norte 0 -- -- 91
2017-12-03 06:00:00 4.5 5 Nordeste 8 Norte 0 -- -- 91
2017-12-03 05:00:00 5.7 0 Calma 13 Norte 0 -- -- 87
2017-12-03 04:00:00 6 6 Noroeste 22 Norte 0 -- -- 86
2017-12-03 03:00:00 4.2 4 Norte 8 Norte 0 -- -- 91
2017-12-03 02:00:00 3 4 Norte 7 Norte 0 -- -- 92
2017-12-03 01:00:00 2.5 0 Calma 4 Este 0 -- -- 87
2017-12-03 00:00:00 4.6 4 Este 15 Nordeste 0 -- -- 82
2017-12-02 23:00:00 5.4 11 Nordeste 20 Nordeste 0 -- -- 78
2017-12-02 22:00:00 6.6 20 Nordeste 38 Noroeste 0 -- -- 74
2017-12-02 21:00:00 5.5 15 Norte 35 Noroeste 0 -- -- 86
2017-12-02 20:00:00 4.9 4 Este 16 Nordeste 0 -- -- 82
2017-12-02 19:00:00 5.9 12 Nordeste 21 Nordeste 0 -- -- 78
2017-12-02 18:00:00 6.6 5 Nordeste 14 Norte 0 -- -- 76
2017-12-02 17:00:00 7.7 9 Noroeste 22 Nordeste 0 -- -- 74
2017-12-02 16:00:00 8.6 12 Nordeste 30 Norte 0 -- -- 68
2017-12-02 15:00:00 9.7 25 Norte 43 Norte 0 -- -- 52
2017-12-02 14:00:00 9.7 13 Noroeste 29 Norte 0 -- -- 53
2017-12-02 13:00:00 8.5 21 Norte 30 Norte 0 -- -- 58
2017-12-02 12:00:00 7.3 24 Norte 58 Norte 0 -- -- 70
2017-12-02 11:00:00 8.5 6 Norte 23 Noroeste 0 -- -- 68
2017-12-02 10:00:00 7.6 21 Noroeste 42 Noroeste 0 -- -- 70
2017-12-02 09:00:00 3.7 0 Calma 8 Noroeste 0 -- -- 99
2017-12-02 08:00:00 0.5 3 Norte 7 Norte 0 -- -- 98
2017-12-02 07:00:00 0.4 0 Calma 8 Este 0 -- -- 96
2017-12-02 06:00:00 0.6 4 Sudeste 6 Sudeste 0 -- -- 97
2017-12-02 05:00:00 1.8 0 Calma 9 Oeste 0 -- -- 96
2017-12-02 04:00:00 2.9 0 Calma 8 Nordeste 0 -- -- 96
2017-12-02 03:00:00 3.6 5 Nordeste 30 Norte 0.2 -- -- 96
2017-12-02 02:00:00 3.5 23 Norte 77 Norte 0.8 -- -- 94
2017-12-02 01:00:00 5.8 25 Norte 40 Noroeste 0 -- -- 79
2017-12-02 00:00:00 5.1 6 Noroeste 41 Noroeste 0 -- -- 83
2017-12-01 23:00:00 4.9 8 Norte 40 Norte 0.2 -- -- 91
2017-12-01 22:00:00 4.9 19 Norte 39 Norte 0.2 -- -- 91
2017-12-01 21:00:00 5.3 22 Norte 43 Nordeste 0 -- -- 93
2017-12-01 20:00:00 4.5 24 Nordeste 54 Norte 0.4 -- -- 96
2017-12-01 19:00:00 3.8 34 Nordeste 59 Norte 0.8 -- -- 95
2017-12-01 18:00:00 8 13 Norte 35 Noroeste 0.4 -- -- 88
2017-12-01 17:00:00 8.7 21 Noroeste 30 Noroeste 0.4 -- -- 87
2017-12-01 16:00:00 9.3 9 Noroeste 37 Noroeste 2.4 -- -- 82
2017-12-01 15:00:00 10.8 27 Noroeste 54 Oeste 1 -- -- 74
2017-12-01 14:00:00 14 30 Oeste 55 Oeste 0 -- -- 63
2017-12-01 13:00:00 13.7 30 Oeste 51 Oeste 0 -- -- 62
2017-12-01 12:00:00 12.2 21 Oeste 42 Oeste 0.6 -- -- 71
2017-12-01 11:00:00 11.4 11 Noroeste 27 Oeste 0 -- -- 73
2017-12-01 10:00:00 10.1 3 Oeste 60 Oeste 1.2 -- -- 80
2017-12-01 09:00:00 4.2 3 Sudoeste 8 Oeste 0 -- -- 99
2017-12-01 08:00:00 2.7 0 Calma 6 Sudeste 0 -- -- 97
2017-12-01 07:00:00 1 0 Calma 4 Norte 0 -- -- 98
2017-12-01 06:00:00 0.5 0 Calma 3 Nordeste 0 -- -- 97
2017-12-01 05:00:00 0.1 0 Calma 3 Nordeste 0 -- -- 97
2017-12-01 04:00:00 0 0 Calma 3 Sudeste 0 -- -- 96
2017-12-01 03:00:00 0.3 3 Sudeste 4 Sudeste 0 -- -- 96
2017-12-01 02:00:00 0.6 0 Calma 3 Norte 0 -- -- 96
2017-12-01 01:00:00 0.7 0 Calma 4 Sudeste 0 -- -- 95
2017-12-01 00:00:00 1.6 0 Calma 5 Sudeste 0 -- -- 94
2017-11-30 23:00:00 2.2 4 Sudeste 5 Sudeste 0 -- -- 93
2017-11-30 22:00:00 3.2 3 Nordeste 6 Norte 0 -- -- 93
2017-11-30 21:00:00 4.3 0 Calma 3 Nordeste 0 -- -- 90
2017-11-30 20:00:00 6.3 0 Calma 5 Norte 0 -- -- 86
2017-11-30 19:00:00 8.3 6 Norte 12 Nordeste 0 -- -- 84
2017-11-30 18:00:00 9.3 8 Norte 11 Norte 0 -- -- 80
2017-11-30 17:00:00 9.9 4 Nordeste 18 Norte 0 -- -- 76
2017-11-30 16:00:00 11.2 14 Norte 26 Norte 0 -- -- 72
2017-11-30 15:00:00 10.8 20 Nordeste 36 Norte 0 -- -- 68
2017-11-30 14:00:00 12.5 22 Nordeste 34 Nordeste 0 -- -- 63
2017-11-30 13:00:00 12.6 22 Nordeste 31 Nordeste 0 -- -- 60
2017-11-30 12:00:00 11.8 17 Nordeste 33 Nordeste 0 -- -- 61
2017-11-30 11:00:00 11.6 18 Nordeste 33 Nordeste 0 -- -- 65
2017-11-30 10:00:00 10.4 11 Nordeste 22 Nordeste 0 -- -- 72
2017-11-30 09:00:00 9.5 8 Nordeste 14 Nordeste 0 -- -- 77
2017-11-30 08:00:00 8.6 12 Norte 19 Nordeste 0 -- -- 85
2017-11-30 07:00:00 8.4 6 Nordeste 15 Nordeste 0 -- -- 89
2017-11-30 06:00:00 9 10 Nordeste 19 Este 0 -- -- 86
2017-11-30 05:00:00 8.8 6 Nordeste 17 Nordeste 0 -- -- 93
2017-11-30 04:00:00 9 11 Nordeste 19 Nordeste 0.2 -- -- 95
2017-11-30 03:00:00 9.3 10 Nordeste 15 Nordeste 0 -- -- 95
2017-11-30 02:00:00 9.3 9 Norte 15 Norte 0 -- -- 96
2017-11-30 01:00:00 10 9 Norte 17 Nordeste 0 -- -- 96
2017-11-30 00:00:00 10.3 10 Nordeste 24 Norte 0.2 -- -- 96
2017-11-29 23:00:00 10.7 10 Nordeste 18 Nordeste 0 -- -- 97
2017-11-29 22:00:00 10.5 8 Nordeste 13 Nordeste 0 -- -- 98
2017-11-29 21:00:00 10.2 5 Nordeste 8 Norte 0 -- -- 97
2017-11-29 20:00:00 10.4 2 Nordeste 5 Nordeste 0 -- -- 97
2017-11-29 19:00:00 11.2 0 Calma 4 Noroeste 0 -- -- 96
2017-11-29 18:00:00 11.6 2 Norte 5 Norte 0 -- -- 95
2017-11-29 17:00:00 11.9 3 Norte 6 Norte 0 -- -- 94
2017-11-29 16:00:00 11.8 2 Norte 8 Norte 0.4 -- -- 94
2017-11-29 15:00:00 11.7 6 Nordeste 9 Norte 0.4 -- -- 92
2017-11-29 14:00:00 11.5 4 Nordeste 14 Este 1.6 -- -- 93
2017-11-29 13:00:00 11.9 2 Este 16 Nordeste 1.2 -- -- 93
2017-11-29 12:00:00 12.2 6 Nordeste 10 Norte 0.8 -- -- 96
2017-11-29 11:00:00 12 6 Norte 16 Sudeste 1 -- -- 95
2017-11-29 10:00:00 12 10 Sudeste 14 Nordeste 1.2 -- -- 95
2017-11-29 09:00:00 12.3 8 Nordeste 15 Nordeste 1.4 -- -- 97
2017-11-29 08:00:00 12.4 10 Nordeste 14 Nordeste 2 -- -- 97
2017-11-29 07:00:00 13.1 5 Nordeste 15 Norte 1.2 -- -- 96
2017-11-29 06:00:00 13.5 6 Sudeste 12 Noroeste 1 -- -- 94
2017-11-29 05:00:00 13.9 7 Norte 30 Oeste 0.4 -- -- 92
2017-11-29 04:00:00 16.2 22 Oeste 32 Sudoeste 0.6 -- -- 91
2017-11-29 03:00:00 13.6 3 Este 18 Nordeste 0.8 -- -- 92
2017-11-29 02:00:00 14 9 Norte 17 Norte 0.2 -- -- 87
2017-11-29 01:00:00 12.9 10 Norte 14 Norte 0 -- -- 89
2017-11-29 00:00:00 13.3 0 Calma 5 Sur 0 -- -- 86
2017-11-28 23:00:00 13.9 5 Norte 9 Nordeste 0 -- -- 82
2017-11-28 22:00:00 15.4 5 Noroeste 26 Oeste 0 -- -- 76
2017-11-28 21:00:00 16.9 18 Oeste 29 Oeste 0 -- -- 77
2017-11-28 20:00:00 17 14 Noroeste 38 Oeste 0 -- -- 73
2017-11-28 19:00:00 17.3 24 Oeste 36 Oeste 0 -- -- 74
2017-11-28 18:00:00 17.3 24 Oeste 41 Oeste 0 -- -- 75
2017-11-28 17:00:00 17.4 21 Oeste 32 Oeste 0 -- -- 74
2017-11-28 16:00:00 17.4 17 Sudoeste 42 Sudoeste 0.2 -- -- 80
2017-11-28 15:00:00 17.7 23 Sudoeste 44 Sudoeste 0 -- -- 74
2017-11-28 14:00:00 18 22 Sudoeste 38 Sudoeste 0 -- -- 70
2017-11-28 13:00:00 17.6 24 Sudoeste 39 Sudoeste 0 -- -- 68
2017-11-28 12:00:00 17.4 21 Sudoeste 38 Sudoeste 0 -- -- 67
2017-11-28 11:00:00 17.3 22 Sudoeste 33 Sudoeste 0 -- -- 66
2017-11-28 10:00:00 16.4 17 Sudoeste 29 Sudoeste 0 -- -- 66
2017-11-28 09:00:00 14.1 14 Sudoeste 24 Sudoeste 0 -- -- 81
2017-11-28 08:00:00 4.8 3 Este 5 Noroeste 0 -- -- 92
2017-11-28 07:00:00 5 0 Calma 4 Sudeste 0 -- -- 93
2017-11-28 06:00:00 4.6 0 Calma 4 Sudeste 0 -- -- 92
2017-11-28 05:00:00 5.3 2 Norte 5 Noroeste 0 -- -- 91
2017-11-28 04:00:00 5.7 0 Calma 3 Noroeste 0 -- -- 90
2017-11-28 03:00:00 6.1 0 Calma 5 Noroeste 0 -- -- 90
2017-11-28 02:00:00 5.5 0 Calma 5 Norte -- -- -- 89
2017-11-28 01:00:00 5.8 0 Calma 5 Norte 0 -- -- 87
2017-11-28 00:00:00 6.8 0 Calma 4 Nordeste 0 -- -- 85
2017-11-27 23:00:00 8 3 Norte 6 Noroeste 0 -- -- 82
2017-11-27 22:00:00 9.5 0 Calma 15 Sudoeste 0 -- -- 76
2017-11-27 21:00:00 9.7 6 Sur 11 Sudoeste 0 -- -- 77
2017-11-27 20:00:00 9.9 6 Sur 12 Sur 0 -- -- 76
2017-11-27 19:00:00 11.1 7 Sudeste 10 Sudeste 0 -- -- 73
2017-11-27 18:00:00 12.7 7 Sudeste 9 Sur 0 -- -- 68
2017-11-27 17:00:00 15.2 5 Sudoeste 14 Oeste 0 -- -- 59
2017-11-27 16:00:00 15.9 5 Sudoeste 15 Sudoeste 0 -- -- 57
2017-11-27 15:00:00 16.3 5 Sudoeste 18 Oeste 0 -- -- 60
2017-11-27 14:00:00 16.9 10 Oeste 18 Sudoeste 0 -- -- 56
2017-11-27 13:00:00 15.8 3 Oeste 10 Este 0 -- -- 56
2017-11-27 12:00:00 13.8 4 Norte 8 Norte 0 -- -- 72
2017-11-27 11:00:00 10.9 4 Norte 5 Noroeste 0 -- -- 95
2017-11-27 10:00:00 7.4 0 Calma 5 Norte 0 -- -- 97
2017-11-27 09:00:00 3.6 0 Calma 3 Noroeste 0 -- -- 98
2017-11-27 08:00:00 1.3 0 Calma 4 Noroeste 0 -- -- 96
2017-11-27 07:00:00 0.6 0 Calma 4 Noroeste 0 -- -- 95
2017-11-27 06:00:00 0.5 0 Calma 3 Sudeste 0 -- -- 95
2017-11-27 05:00:00 0.6 0 Calma 4 Noroeste 0 -- -- 95
2017-11-27 04:00:00 1.2 0 Calma 4 Noroeste 0 -- -- 94
2017-11-27 03:00:00 1.8 0 Calma 3 Norte 0 -- -- 94
2017-11-27 02:00:00 2.4 0 Calma 5 Norte 0 -- -- 93
2017-11-27 01:00:00 2.7 2 Norte 3 Norte 0 -- -- 94
2017-11-27 00:00:00 2.9 0 Calma 4 Norte 0 -- -- 92
2017-11-26 23:00:00 4 3 Norte 4 Norte 0 -- -- 93
2017-11-26 22:00:00 4.8 2 Norte 4 Norte 0 -- -- 91
2017-11-26 21:00:00 6.3 0 Calma 4 Noroeste 0 -- -- 89
2017-11-26 20:00:00 6.9 0 Calma 3 Nordeste 0 -- -- 84
2017-11-26 19:00:00 10.2 3 Nordeste 9 Nordeste 0 -- -- 81
2017-11-26 18:00:00 11.1 4 Nordeste 10 Nordeste 0 -- -- 79
2017-11-26 17:00:00 12.2 7 Nordeste 12 Norte 0 -- -- 74
2017-11-26 16:00:00 13.8 6 Nordeste 18 Nordeste 0 -- -- 67
2017-11-26 15:00:00 12.8 9 Nordeste 17 Norte 0 -- -- 72
2017-11-26 14:00:00 12.1 11 Nordeste 22 Norte 0 -- -- 78
2017-11-26 13:00:00 11.9 9 Nordeste 23 Nordeste 0 -- -- 82
2017-11-26 12:00:00 12.4 9 Nordeste 20 Nordeste 0 -- -- 82
2017-11-26 11:00:00 12.6 6 Nordeste 19 Nordeste 0 -- -- 80
2017-11-26 10:00:00 12.2 11 Nordeste 17 Nordeste 0 -- -- 84
2017-11-26 09:00:00 11.7 5 Norte 9 Nordeste 0 -- -- 87
2017-11-26 08:00:00 11.4 4 Nordeste 15 Nordeste 0 -- -- 88
2017-11-26 07:00:00 11.4 9 Nordeste 17 Nordeste 0 -- -- 89
2017-11-26 06:00:00 11.6 8 Nordeste 21 Nordeste 0 -- -- 88
2017-11-26 05:00:00 11.4 13 Nordeste 30 Nordeste 0 -- -- 90
2017-11-26 04:00:00 12.8 20 Norte 29 Nordeste 0 -- -- 79
2017-11-26 03:00:00 13.7 9 Nordeste 14 Nordeste 0 -- -- 76
2017-11-26 02:00:00 14.4 8 Nordeste 15 Nordeste 0 -- -- 75
2017-11-26 01:00:00 13.7 6 Nordeste 13 Nordeste 0 -- -- 81
2017-11-26 00:00:00 13.3 4 Nordeste 9 Nordeste 0 -- -- 83
2017-11-25 23:00:00 12.9 4 Nordeste 9 Nordeste 0 -- -- 87
2017-11-25 22:00:00 12.3 7 Norte 8 Norte 0 -- -- 88
2017-11-25 21:00:00 13.4 4 Norte 12 Este 0 -- -- 85
2017-11-25 20:00:00 15.5 6 Nordeste 15 Este 0 -- -- 79
2017-11-25 19:00:00 15.6 3 Este 10 Nordeste 0 -- -- 77
2017-11-25 18:00:00 17.4 6 Norte 10 Norte 0 -- -- 69
2017-11-25 17:00:00 19.6 6 Este 13 Norte 0 -- -- 61
2017-11-25 16:00:00 20.2 5 Oeste 27 Oeste 0 -- -- 73
2017-11-25 15:00:00 21.7 17 Oeste 26 Oeste 0 -- -- 66
2017-11-25 14:00:00 20.7 19 Oeste 30 Oeste 0 -- -- 68
2017-11-25 13:00:00 20.5 20 Oeste 31 Oeste 0 -- -- 72
2017-11-25 12:00:00 20 18 Oeste 26 Oeste 0 -- -- 80
2017-11-25 11:00:00 19.6 12 Oeste 27 Oeste 0 -- -- 84
2017-11-25 10:00:00 19.3 14 Oeste 29 Oeste 0 -- -- 83
2017-11-25 09:00:00 18.9 11 Sudoeste 23 Sudoeste 0 -- -- 85
2017-11-25 08:00:00 18.3 8 Sudoeste 26 Sudoeste 0 -- -- 80
2017-11-25 07:00:00 17.7 8 Sudoeste 24 Oeste 0 -- -- 81
2017-11-25 06:00:00 13 3 Noroeste 16 Sudoeste 0 -- -- 93
2017-11-25 05:00:00 10.5 5 Norte 9 Sur 0 -- -- 92
2017-11-25 04:00:00 10.6 3 Sur 9 Norte 0 -- -- 93
2017-11-25 03:00:00 10.3 0 Calma 5 Sudeste 0 -- -- 92
2017-11-25 02:00:00 11.9 3 Nordeste 6 Sudeste 0 -- -- 89
2017-11-25 01:00:00 14.8 3 Noroeste 12 Oeste 0 -- -- 82
2017-11-25 00:00:00 17.8 7 Sudoeste 12 Sudoeste 0 -- -- 81
2017-11-24 23:00:00 18.4 9 Oeste 14 Oeste 0 -- -- 80
2017-11-24 22:00:00 18.6 3 Sudoeste 13 Sudoeste 0 -- -- 82
2017-11-24 21:00:00 18.4 9 Sudoeste 14 Sudoeste 0 -- -- 87
2017-11-24 20:00:00 18.1 7 Sudoeste 13 Sudoeste 0 -- -- 89
2017-11-24 19:00:00 17.8 7 Sudoeste 12 Sur 0 -- -- 89
2017-11-24 18:00:00 18.3 8 Sudoeste 15 Sudoeste 0 -- -- 88
2017-11-24 17:00:00 19.5 8 Sudoeste 21 Sudoeste 0 -- -- 86
2017-11-24 16:00:00 20.1 13 Sudoeste 23 Oeste 0 -- -- 84
2017-11-24 15:00:00 21.1 13 Sudoeste 25 Sudoeste 0 -- -- 80
2017-11-24 14:00:00 21.2 15 Sudoeste 27 Sudoeste 0 -- -- 81
2017-11-24 13:00:00 21.5 15 Oeste 26 Oeste 0 -- -- 80
2017-11-24 12:00:00 21.2 17 Oeste 28 Oeste 0 -- -- 82
2017-11-24 11:00:00 20.6 13 Oeste 23 Sudoeste 0 -- -- 85
2017-11-24 10:00:00 19.3 10 Sudoeste 22 Sudoeste 0 -- -- 90
2017-11-24 09:00:00 17.8 11 Sudoeste 22 Sudoeste 0 -- -- 96
2017-11-24 08:00:00 9.7 3 Oeste 9 Oeste 0 -- -- 97
2017-11-24 07:00:00 7.2 0 Calma 5 Norte 0 -- -- 95
2017-11-24 06:00:00 7.1 0 Calma 4 Norte 0 -- -- 95
2017-11-24 05:00:00 7.2 0 Calma 4 Norte 0 -- -- 94
2017-11-24 04:00:00 7.8 0 Calma 5 Norte 0 -- -- 93
2017-11-24 03:00:00 7.9 4 Norte 6 Norte 0 -- -- 93
2017-11-24 02:00:00 7.4 0 Calma 3 Sudeste 0 -- -- 94
2017-11-24 01:00:00 7.5 0 Calma 5 Oeste 0 -- -- 93
2017-11-24 00:00:00 8 0 Calma -- -- 0 -- -- 93
2017-11-23 23:00:00 8.7 0 Calma 4 Norte 0 -- -- 92
2017-11-23 22:00:00 9.4 0 Calma 4 Sudeste 0 -- -- 92
2017-11-23 21:00:00 10.7 2 Sudeste 7 Sudeste 0 -- -- 91
2017-11-23 20:00:00 12.4 6 Sur 8 Sur 0 -- -- 91
2017-11-23 19:00:00 12.6 4 Sur 7 Sudoeste 0 -- -- 86
2017-11-23 18:00:00 16.7 5 Sudoeste 10 Oeste 0 -- -- 77
2017-11-23 17:00:00 19.1 7 Oeste 21 Oeste 0 -- -- 75
2017-11-23 16:00:00 19.8 15 Oeste 23 Sudoeste 0 -- -- 72
2017-11-23 15:00:00 20.4 10 Sudoeste 22 Sudoeste 0 -- -- 71
2017-11-23 14:00:00 20.3 13 Oeste 20 Oeste 0 -- -- 72
2017-11-23 13:00:00 20.1 13 Oeste 20 Oeste 0 -- -- 70
2017-11-23 12:00:00 19.8 8 Oeste 15 Oeste 0 -- -- 72
2017-11-23 11:00:00 16.6 0 Calma 3 Noroeste 0 -- -- 81
2017-11-23 10:00:00 11.8 0 Calma 2 Noroeste 0 -- -- 93
2017-11-23 09:00:00 7.8 0 Calma 4 Noroeste 0 -- -- 97
2017-11-23 08:00:00 3.9 0 Calma 2 Sur 0 -- -- 96
2017-11-23 07:00:00 4.2 0 Calma 2 Sudeste 0 -- -- 95
2017-11-23 06:00:00 4.5 0 Calma 4 Sur 0 -- -- 95
2017-11-23 05:00:00 4.8 0 Calma 3 Sudeste 0 -- -- 95
2017-11-23 04:00:00 5.2 0 Calma 4 Sudeste 0 -- -- 94
2017-11-23 03:00:00 5.6 0 Calma 3 Sudeste 0 -- -- 94
2017-11-23 02:00:00 5.7 0 Calma 3 Sudeste 0 -- -- 93
2017-11-23 01:00:00 6.7 2 Nordeste 7 Noroeste 0 -- -- 93
2017-11-23 00:00:00 6.6 0 Calma 4 Sudeste 0 -- -- 92
2017-11-22 23:00:00 7.7 0 Calma 6 Noroeste 0 -- -- 90
2017-11-22 22:00:00 8.3 0 Calma 4 Norte 0 -- -- 90
2017-11-22 21:00:00 8.9 0 Calma 4 Sudeste 0 -- -- 89
2017-11-22 20:00:00 9.9 0 Calma 4 Sudeste 0 -- -- 87
2017-11-22 19:00:00 11.7 2 Este 8 Sudeste 0 -- -- 84
2017-11-22 18:00:00 14.7 4 Sudeste -- -- 0 -- -- 76
2017-11-22 17:00:00 17.6 4 Sudeste 15 Sudeste 0 -- -- 72
2017-11-22 16:00:00 19.4 10 Sudeste 17 Sur 0 -- -- 65
2017-11-22 15:00:00 19.7 11 Sur 21 Sur 0 -- -- 66
2017-11-22 14:00:00 19.6 11 Sudoeste 22 Sur 0 -- -- 68
2017-11-22 13:00:00 20.1 10 Sur 20 Sudoeste 0 -- -- 65
2017-11-22 12:00:00 19.6 10 Sur 20 Sur 0 -- -- 67
2017-11-22 11:00:00 18.9 13 Sur 20 Sur 0 -- -- 72
2017-11-22 10:00:00 13.7 2 Norte 3 Noroeste 0 -- -- 88
2017-11-22 09:00:00 9.6 0 Calma 3 Sudeste 0 -- -- 95
2017-11-22 08:00:00 6.4 0 Calma 3 Este 0 -- -- 95
2017-11-22 07:00:00 6.7 0 Calma 3 Este 0 -- -- 94
2017-11-22 06:00:00 6.5 0 Calma 2 Norte 0 -- -- 94
2017-11-22 05:00:00 7.1 0 Calma 3 Sudeste 0 -- -- 93
2017-11-22 04:00:00 7.6 0 Calma 2 Norte 0 -- -- 92
2017-11-22 03:00:00 8.2 0 Calma 3 Sudeste 0 -- -- 91
2017-11-22 02:00:00 10.6 0 Calma 4 Norte 0 -- -- 90
2017-11-22 01:00:00 10.9 3 Sudeste 4 Sudeste 0 -- -- 91
2017-11-22 00:00:00 10.7 0 Calma 4 Norte 0 -- -- 92
2017-11-21 23:00:00 10.8 0 Calma 4 Noroeste 0 -- -- 91
2017-11-21 22:00:00 11.2 0 Calma 8 Sudeste 0 -- -- 89
2017-11-21 21:00:00 12.8 7 Sudeste 11 Sudeste 0 -- -- 88
2017-11-21 20:00:00 13.7 7 Sudeste 10 Sudeste 0 -- -- 86
2017-11-21 19:00:00 15.5 5 Sur 14 Sur 0 -- -- 81
2017-11-21 18:00:00 17.1 6 Sur 13 Sudoeste 0 -- -- 78
2017-11-21 17:00:00 18.4 7 Sudoeste 17 Sudoeste 0 -- -- 72
2017-11-21 16:00:00 19.2 13 Sudoeste 20 Oeste 0 -- -- 69
2017-11-21 15:00:00 19.9 10 Sudoeste 19 Sudoeste 0 -- -- 67
2017-11-21 14:00:00 20.1 11 Sudoeste 20 Sudoeste 0 -- -- 67
2017-11-21 13:00:00 19.5 9 Sudoeste 20 Oeste 0 -- -- 68
2017-11-21 12:00:00 19.1 12 Sudoeste 19 Sudoeste 0 -- -- 71
2017-11-21 11:00:00 15.2 0 Calma 7 Noroeste 0 -- -- 87
2017-11-21 10:00:00 10.6 0 Calma 4 Noroeste 0 -- -- 95
2017-11-21 09:00:00 7.7 0 Calma 3 Noroeste 0 -- -- 96
2017-11-21 08:00:00 6.2 0 Calma 3 Noroeste 0 -- -- 96
2017-11-21 07:00:00 6.4 0 Calma 3 Sudeste 0 -- -- 96
2017-11-21 06:00:00 5.9 0 Calma 4 Sudeste 0 -- -- 95
2017-11-21 05:00:00 6.1 0 Calma 3 Norte 0 -- -- 94
2017-11-21 04:00:00 6.7 0 Calma 4 Sudeste 0 -- -- 94
2017-11-21 03:00:00 6.4 0 Calma 4 Noroeste 0 -- -- 93
2017-11-21 02:00:00 6 0 Calma 3 Norte 0 -- -- 93
2017-11-21 01:00:00 6.6 0 Calma 3 Sudeste 0 -- -- 92
2017-11-21 00:00:00 7.3 0 Calma 5 Norte 0 -- -- 92
2017-11-20 23:00:00 8.1 2 Noroeste 5 Noroeste 0 -- -- 93
2017-11-20 22:00:00 8.2 0 Calma 3 Sudeste 0 -- -- 90
2017-11-20 21:00:00 9.5 0 Calma 6 Nordeste 0 -- -- 88
2017-11-20 20:00:00 10.8 4 Norte 6 Sudeste 0 -- -- 88
2017-11-20 19:00:00 12 3 Sudeste 6 Sur 0 -- -- 84
2017-11-20 18:00:00 14.9 0 Calma 7 Sudoeste 0 -- -- 75
2017-11-20 17:00:00 18.5 7 Oeste 14 Sudoeste 0 -- -- 71
2017-11-20 16:00:00 19.5 9 Oeste 19 Sudoeste 0 -- -- 68
2017-11-20 15:00:00 19.6 12 Oeste 20 Oeste 0 -- -- 67
2017-11-20 14:00:00 19.5 14 Oeste 21 Oeste 0 -- -- 66
2017-11-20 13:00:00 19.1 14 Oeste 23 Oeste 0 -- -- 67
2017-11-20 12:00:00 18.9 11 Oeste 16 Oeste 0 -- -- 68
2017-11-20 11:00:00 16.7 0 Calma 3 Norte 0 -- -- 73
2017-11-20 10:00:00 12.7 0 Calma 2 Este 0 -- -- 89
2017-11-20 09:00:00 7.4 0 Calma 4 Norte 0 -- -- 96
2017-11-20 08:00:00 3.5 0 Calma 2 Norte 0 -- -- 95
2017-11-20 07:00:00 3.8 0 Calma 3 Noroeste 0 -- -- 94
2017-11-20 06:00:00 3 0 Calma 3 Norte 0 -- -- 94
2017-11-20 05:00:00 2.9 0 Calma 2 Sudeste 0 -- -- 94
2017-11-20 04:00:00 3.3 0 Calma 2 Sur 0 -- -- 93
2017-11-20 03:00:00 3.5 0 Calma -- -- 0 -- -- 93
2017-11-20 02:00:00 4 0 Calma -- -- 0 -- -- 92
2017-11-20 01:00:00 4.8 0 Calma 2 Sudeste 0 -- -- 92
2017-11-20 00:00:00 5.6 0 Calma 3 Este 0 -- -- 91
2017-11-19 23:00:00 6.3 0 Calma 3 Norte 0 -- -- 90
2017-11-19 22:00:00 7.3 0 Calma 3 Sudeste 0 -- -- 89
2017-11-19 21:00:00 8.4 3 Sudeste 4 Sudeste 0 -- -- 87
2017-11-19 20:00:00 10.1 2 Sudeste 5 Nordeste 0 -- -- 81
2017-11-19 19:00:00 13.5 0 Calma 12 Noroeste 0 -- -- 73
2017-11-19 18:00:00 16.8 9 Oeste 21 Oeste 0 -- -- 72
2017-11-19 17:00:00 18.5 17 Oeste 25 Oeste 0 -- -- 66
2017-11-19 16:00:00 19.5 17 Oeste 27 Oeste 0 -- -- 62
2017-11-19 15:00:00 19.6 19 Oeste 29 Oeste 0 -- -- 62
2017-11-19 14:00:00 19.9 19 Oeste 27 Oeste 0 -- -- 62
2017-11-19 13:00:00 19.5 18 Oeste 27 Oeste 0 -- -- 67
2017-11-19 12:00:00 19.4 12 Oeste 19 Oeste 0 -- -- 71
2017-11-19 11:00:00 17.5 0 Calma 3 Noroeste 0 -- -- 78
2017-11-19 10:00:00 12 0 Calma 6 Norte 0 -- -- 90
2017-11-19 09:00:00 7.3 0 Calma -- -- 0 -- -- 95
2017-11-19 08:00:00 3.7 0 Calma -- -- 0 -- -- 95
2017-11-19 07:00:00 3.6 0 Calma -- -- 0 -- -- 94
2017-11-19 06:00:00 4.2 0 Calma -- -- 0 -- -- 94
2017-11-19 05:00:00 4.4 0 Calma 2 Norte 0 -- -- 93
2017-11-19 04:00:00 4.8 0 Calma 3 Norte 0 -- -- 92
2017-11-19 03:00:00 5.1 0 Calma 3 Norte 0 -- -- 92
2017-11-19 02:00:00 5.7 0 Calma 3 Sudeste 0 -- -- 91
2017-11-19 01:00:00 6.2 0 Calma 2 Noroeste 0 -- -- 91
2017-11-19 00:00:00 6.7 0 Calma 2 Sudeste 0 -- -- 89
2017-11-18 23:00:00 7.9 0 Calma 5 Nordeste 0 -- -- 88
2017-11-18 22:00:00 9.6 0 Calma 4 Nordeste 0 -- -- 86
2017-11-18 21:00:00 10.9 4 Norte 9 Norte 0 -- -- 85
2017-11-18 20:00:00 10 2 Norte 5 Norte 0 -- -- 82
2017-11-18 19:00:00 12.3 0 Calma 6 Nordeste 0 -- -- 76
2017-11-18 18:00:00 15.2 5 Este 16 Este 0 -- -- 73
2017-11-18 17:00:00 17.1 13 Este 24 Sudeste 0 -- -- 67
2017-11-18 16:00:00 20.1 7 Sur 18 Oeste 0 -- -- 60
2017-11-18 15:00:00 19.7 11 Sudoeste 18 Oeste 0 -- -- 64
2017-11-18 14:00:00 19.8 12 Oeste 20 Oeste 0 -- -- 61
2017-11-18 13:00:00 20 5 Sudoeste 13 Oeste 0 -- -- 61
2017-11-18 12:00:00 19.1 9 Oeste 14 Oeste 0 -- -- 67
2017-11-18 11:00:00 16.5 2 Noroeste 3 Noroeste 0 -- -- 72
2017-11-18 10:00:00 12 0 Calma 6 Norte 0 -- -- 84
2017-11-18 09:00:00 7.2 0 Calma 3 Norte 0 -- -- 94
2017-11-18 08:00:00 3.2 0 Calma 2 Sudeste 0 -- -- 95
2017-11-18 07:00:00 2.7 0 Calma 0 Calma 0 -- -- 94
2017-11-18 06:00:00 2.8 0 Calma 3 Norte 0 -- -- 94
2017-11-18 05:00:00 3.1 2 Norte 3 Noroeste 0 -- -- 93
2017-11-18 04:00:00 3.3 0 Calma -- -- 0 -- -- 93
2017-11-18 03:00:00 3.6 0 Calma -- -- 0 -- -- 92
2017-11-18 02:00:00 4.2 0 Calma -- -- 0 -- -- 92
2017-11-18 01:00:00 4.8 0 Calma 2 Norte 0 -- -- 91
2017-11-18 00:00:00 5.5 0 Calma 2 Noroeste 0 -- -- 91
2017-11-17 23:00:00 5.9 0 Calma 2 Sudeste 0 -- -- 90
2017-11-17 22:00:00 6.8 0 Calma 4 Sudeste 0 -- -- 88
2017-11-17 21:00:00 8 3 Sudeste 3 Sudeste 0 -- -- 86
2017-11-17 20:00:00 10.3 0 Calma 4 Norte 0 -- -- 82
2017-11-17 19:00:00 12.7 2 Este 9 Oeste 0 -- -- 78
2017-11-17 18:00:00 16.4 9 Oeste 20 Oeste 0 -- -- 74
2017-11-17 17:00:00 18.1 14 Oeste 27 Sudoeste 0 -- -- 69
2017-11-17 16:00:00 18.7 17 Oeste 26 Oeste 0 -- -- 64
2017-11-17 15:00:00 18.8 17 Oeste 30 Oeste 0 -- -- 67
2017-11-17 14:00:00 18.7 19 Oeste 32 Oeste 0 -- -- 67
2017-11-17 13:00:00 18.4 15 Oeste 24 Oeste 0 -- -- 68
2017-11-17 12:00:00 18.1 9 Sudoeste 14 Sudoeste 0 -- -- 65
2017-11-17 11:00:00 15.4 3 Oeste 6 Sudoeste 0 -- -- 74
2017-11-17 10:00:00 10.9 0 Calma 7 Oeste 0 -- -- 89
2017-11-17 09:00:00 6.6 0 Calma -- -- 0 -- -- 95
2017-11-17 08:00:00 2.6 0 Calma -- -- 0 -- -- 95
2017-11-17 07:00:00 2.3 0 Calma -- -- 0 -- -- 93
2017-11-17 06:00:00 2.3 0 Calma -- -- 0 -- -- 93
2017-11-17 05:00:00 2.7 0 Calma -- -- 0 -- -- 93
2017-11-17 04:00:00 2.9 0 Calma -- -- 0 -- -- 93
2017-11-17 03:00:00 3.2 0 Calma -- -- 0 -- -- 92
2017-11-17 02:00:00 3.7 0 Calma 2 Noroeste 0 -- -- 91
2017-11-17 01:00:00 4.4 0 Calma 3 Sudeste 0 -- -- 91
2017-11-17 00:00:00 5.1 0 Calma 3 Sudeste 0 -- -- 90
2017-11-16 23:00:00 5.6 0 Calma 4 Noroeste 0 -- -- 89
2017-11-16 22:00:00 6.3 0 Calma 4 Oeste 0 -- -- 87
2017-11-16 21:00:00 7.6 3 Oeste 4 Oeste 0 -- -- 85
2017-11-16 20:00:00 9.6 0 Calma 5 Norte 0 -- -- 77
2017-11-16 19:00:00 13.1 5 Nordeste 9 Norte 0 -- -- 76
2017-11-16 18:00:00 15.6 5 Noroeste 15 Oeste 0 -- -- 67
2017-11-16 17:00:00 18 13 Oeste 22 Oeste 0 -- -- 62
2017-11-16 16:00:00 18.8 16 Oeste 24 Oeste 0 -- -- 59
2017-11-16 15:00:00 19.4 14 Oeste 33 Oeste 0 -- -- 52
2017-11-16 14:00:00 19.7 4 Norte 9 Norte 0 -- -- 49
2017-11-16 13:00:00 19.4 3 Noroeste 13 Noroeste 0 -- -- 47
2017-11-16 12:00:00 18.2 3 Norte 14 Norte 0 -- -- 53
2017-11-16 11:00:00 15.8 3 Noroeste 5 Noroeste 0 -- -- 71
2017-11-16 10:00:00 11 0 Calma 3 Noroeste 0 -- -- 84
2017-11-16 09:00:00 5.9 0 Calma 0 Calma 0 -- -- 94
2017-11-16 08:00:00 2.3 0 Calma 3 Sudeste 0 -- -- 93
2017-11-16 07:00:00 1.8 0 Calma 3 Sudeste 0 -- -- 93
2017-11-16 06:00:00 1.5 0 Calma 2 Noroeste 0 -- -- 92
2017-11-16 05:00:00 1.6 0 Calma 0 Calma 0 -- -- 92
2017-11-16 04:00:00 1.8 0 Calma 2 Sudeste 0 -- -- 91
2017-11-16 03:00:00 2.1 0 Calma 2 Norte 0 -- -- 89
2017-11-16 02:00:00 2.6 0 Calma 3 Noroeste 0 -- -- 89
2017-11-16 01:00:00 2.9 0 Calma 3 Sudeste 0 -- -- 88
2017-11-16 00:00:00 3.6 0 Calma 3 Sudeste 0 -- -- 86
2017-11-15 23:00:00 5.6 0 Calma 8 Noroeste 0 -- -- 83
2017-11-15 22:00:00 5.2 3 Sudeste 4 Sudeste 0 -- -- 83
2017-11-15 21:00:00 5.8 2 Este 4 Este 0 -- -- 77
2017-11-15 20:00:00 7.8 2 Este 6 Este 0 -- -- 72
2017-11-15 19:00:00 10.7 4 Este 9 Nordeste 0 -- -- 64
2017-11-15 18:00:00 13.8 5 Norte 11 Norte 0 -- -- 57
2017-11-15 17:00:00 17.3 8 Noroeste 19 Noroeste 0 -- -- 49
2017-11-15 16:00:00 17.9 13 Noroeste 24 Noroeste 0 -- -- 48
2017-11-15 15:00:00 17.8 18 Noroeste 35 Noroeste 0 -- -- 49
2017-11-15 14:00:00 17.7 23 Noroeste 33 Noroeste 0 -- -- 48
2017-11-15 13:00:00 18 13 Noroeste 24 Noroeste 0 -- -- 53
2017-11-15 12:00:00 17.2 13 Noroeste 26 Noroeste 0 -- -- 53
2017-11-15 11:00:00 15.9 19 Noroeste 26 Noroeste 0 -- -- 56
2017-11-15 10:00:00 12.1 0 Calma 3 Noroeste 0 -- -- 73
2017-11-15 09:00:00 7.8 0 Calma 4 Sudeste 0 -- -- 92
2017-11-15 08:00:00 2.4 0 Calma 3 Sudeste 0 -- -- 93
2017-11-15 07:00:00 1.9 3 Sudeste 4 Sudeste 0 -- -- 91
2017-11-15 06:00:00 2.6 0 Calma 4 Este 0 -- -- 90
2017-11-15 05:00:00 2.8 3 Sudeste 4 Sudeste 0 -- -- 89
2017-11-15 04:00:00 3.5 0 Calma 4 Sudeste 0 -- -- 87
2017-11-15 03:00:00 4 0 Calma 4 Sudeste 0 -- -- 84
2017-11-15 02:00:00 5.8 0 Calma 6 Sudoeste 0 -- -- 76
2017-11-15 01:00:00 8.8 5 Nordeste 15 Nordeste 0 -- -- 74
2017-11-15 00:00:00 8.2 4 Oeste 18 Nordeste 0 -- -- 73